Lucy, New Mexico
Current Conditions -  °F | °C
As of 7:35 AM on Monday 26 Jan 2015 (Local Time) from K0E0 Reporting Station
Clear Clear  
Wind Chill: 25°   Ceiling: Unl
Heat Index: 25°   Visibility: 10mi
Dew Point: 21°   Wind: 0mph
Humidity: 85%   Direction: NA
Pressure: 30.38"   Gusts: NA
Location:  34.4464°N, 106.01°W
Report Text: K0E0 261435Z AUTO 00000KT 10SM CLR M04/M06 A3038 RMK AO2 T10381060
Loading
Personal Weather Stations






























Interactive Weather Map New forecast layout! Learn more

10-Day Weather Forecast

Advertisements
Track Severe Weather on mobile